Time;durP1;ratioP1;P1;durP2;ratioP2;P2;SDS_P1;SDS_P2;PMS_P1;PMS_P2;Temp;Humidity;BMP_temperature;BMP_pressure;BME280_temperature;BME280_humidity;BME280_pressure;Samples;Min_cycle;Max_cycle;Signal;HPM_P1;HPM_P2
2023/09/29 04:01:34;;;;;;;3.43;2.20;;;18.10;72.40;;;;;;6268716;22;20448;-74
2023/09/29 04:04:02;;;;;;;2.83;1.70;;;18.20;72.60;;;;;;6309156;22;20492;-73
2023/09/29 04:06:29;;;;;;;3.17;2.00;;;18.30;72.40;;;;;;6309073;22;20404;-72
2023/09/29 04:08:57;;;;;;;3.17;1.90;;;18.20;72.80;;;;;;6309032;22;20392;-74
2023/09/29 04:11:24;;;;;;;3.07;2.40;;;18.20;72.90;;;;;;6295296;22;20417;-73
2023/09/29 04:13:51;;;;;;;3.10;2.20;;;18.20;72.80;;;;;;6278710;22;20397;-72
2023/09/29 04:16:18;;;;;;;3.17;2.70;;;18.30;72.80;;;;;;6277029;22;20393;-72
2023/09/29 04:18:47;;;;;;;2.97;1.97;;;18.30;72.90;;;;;;6278005;22;20404;-72
2023/09/29 04:21:15;;;;;;;4.93;2.40;;;18.30;72.60;;;;;;6277883;22;20417;-73
2023/09/29 04:23:41;;;;;;;2.73;1.87;;;18.30;72.40;;;;;;6277912;22;20520;-72
2023/09/29 04:26:15;;;;;;;3.40;2.00;;;18.30;72.40;;;;;;6278479;22;20409;-72
2023/09/29 04:28:42;;;;;;;3.70;2.40;;;18.30;72.30;;;;;;6277934;22;20435;-73
2023/09/29 04:31:08;;;;;;;3.27;2.13;;;18.40;72.10;;;;;;6277397;22;20751;-72
2023/09/29 04:33:35;;;;;;;4.10;2.30;;;18.50;71.90;;;;;;6277885;22;20419;-73
2023/09/29 04:36:03;;;;;;;2.30;1.87;;;18.50;72.10;;;;;;6277432;22;20919;-73
2023/09/29 04:38:30;;;;;;;2.60;2.10;;;18.60;71.90;;;;;;6278450;22;20401;-73
2023/09/29 04:40:57;;;;;;;2.60;2.00;;;18.60;71.50;;;;;;6277748;22;20417;-73
2023/09/29 04:43:23;;;;;;;3.17;2.13;;;18.60;71.30;;;;;;6277601;22;20438;-73
2023/09/29 04:45:50;;;;;;;3.30;2.13;;;18.70;71.40;;;;;;6277710;22;20401;-73
2023/09/29 04:48:17;;;;;;;3.67;2.53;;;18.70;71.00;;;;;;6277735;22;20447;-72
2023/09/29 04:50:44;;;;;;;3.60;1.97;;;18.70;71.30;;;;;;6277583;22;20421;-72
2023/09/29 04:53:12;;;;;;;2.90;2.27;;;18.80;71.10;;;;;;6277681;22;20427;-72
2023/09/29 04:55:38;;;;;;;3.23;2.10;;;18.90;71.00;;;;;;6277671;22;20406;-73
2023/09/29 04:58:05;;;;;;;3.10;2.20;;;18.90;71.10;;;;;;6277629;22;20397;-72
2023/09/29 05:00:32;;;;;;;2.53;1.90;;;18.90;71.30;;;;;;6277266;22;20404;-71
2023/09/29 05:02:58;;;;;;;3.10;2.33;;;18.90;71.30;;;;;;6277539;22;20429;-72
2023/09/29 05:05:25;;;;;;;2.90;2.40;;;18.90;71.40;;;;;;6277157;22;20735;-72
2023/09/29 05:07:52;;;;;;;2.90;2.10;;;18.90;71.60;;;;;;6277532;22;20406;-73
2023/09/29 05:10:20;;;;;;;3.10;2.10;;;18.90;71.60;;;;;;6277553;22;20423;-72
2023/09/29 05:12:47;;;;;;;3.37;2.13;;;18.90;71.90;;;;;;6277451;22;20393;-72
2023/09/29 05:15:14;;;;;;;2.30;1.70;;;18.90;71.80;;;;;;6277446;22;20396;-72
2023/09/29 05:17:40;;;;;;;2.93;2.23;;;19.00;72.00;;;;;;6277412;22;20464;-73
2023/09/29 05:20:10;;;;;;;3.10;2.20;;;19.00;71.40;;;;;;6276937;22;20404;-72
2023/09/29 05:22:36;;;;;;;3.00;1.90;;;18.90;71.70;;;;;;6277176;22;20436;-73
2023/09/29 05:25:04;;;;;;;2.97;2.20;;;18.90;71.70;;;;;;6277399;22;20485;-73
2023/09/29 05:27:32;;;;;;;3.00;2.00;;;18.80;71.90;;;;;;6277109;22;20402;-72
2023/09/29 05:29:59;;;;;;;3.13;2.33;;;18.80;72.10;;;;;;6277320;22;20397;-72
2023/09/29 05:32:25;;;;;;;2.70;2.10;;;18.80;71.80;;;;;;6277175;22;20421;-72
2023/09/29 05:34:52;;;;;;;3.00;2.30;;;18.80;72.00;;;;;;6277284;22;20408;-73
2023/09/29 05:37:19;;;;;;;3.97;2.90;;;18.80;72.30;;;;;;6277225;22;20404;-72
2023/09/29 05:39:45;;;;;;;2.83;2.10;;;18.70;72.00;;;;;;6276796;22;20410;-72
2023/09/29 05:42:12;;;;;;;3.43;2.33;;;18.60;72.70;;;;;;6276641;22;20970;-73
2023/09/29 05:44:40;;;;;;;2.93;2.13;;;18.70;72.80;;;;;;6277151;22;20405;-73
2023/09/29 05:47:07;;;;;;;2.53;1.97;;;18.80;72.60;;;;;;6277102;22;20455;-72
2023/09/29 05:49:33;;;;;;;3.30;2.20;;;18.80;72.30;;;;;;6277071;22;20509;-73
2023/09/29 05:52:00;;;;;;;3.07;2.30;;;18.90;72.20;;;;;;6277015;22;20417;-73
2023/09/29 05:54:27;;;;;;;3.00;1.83;;;18.90;72.40;;;;;;6277067;22;20402;-72
2023/09/29 05:56:54;;;;;;;3.17;1.90;;;19.10;72.50;;;;;;6277067;22;20405;-73
2023/09/29 05:59:20;;;;;;;2.63;2.00;;;19.20;72.40;;;;;;6276986;22;20409;-73
2023/09/29 06:01:48;;;;;;;3.83;2.97;;;19.20;72.10;;;;;;6276530;22;20429;-74
2023/09/29 06:04:15;;;;;;;3.13;2.50;;;19.20;72.10;;;;;;6276412;22;20441;-73
2023/09/29 06:06:42;;;;;;;2.60;2.00;;;19.30;71.80;;;;;;6277023;22;20397;-72
2023/09/29 06:09:08;;;;;;;2.70;1.90;;;19.30;71.50;;;;;;6277580;22;20408;-74
2023/09/29 06:11:35;;;;;;;2.40;1.73;;;19.40;71.30;;;;;;6276467;22;20764;-73
2023/09/29 06:14:02;;;;;;;2.97;2.10;;;19.40;72.00;;;;;;6276563;22;20888;-73
2023/09/29 06:16:28;;;;;;;2.50;1.77;;;19.40;71.20;;;;;;6276912;22;20461;-74
2023/09/29 06:18:56;;;;;;;3.63;2.07;;;19.70;71.10;;;;;;6276881;22;20405;-74
2023/09/29 06:21:23;;;;;;;2.83;2.40;;;20.30;69.30;;;;;;6276747;22;20421;-73
2023/09/29 06:23:50;;;;;;;3.47;2.00;;;20.60;68.50;;;;;;6276720;22;20465;-73
2023/09/29 06:26:16;;;;;;;2.90;2.23;;;20.50;69.00;;;;;;6276783;22;20405;-73
2023/09/29 06:28:43;;;;;;;2.50;2.07;;;20.40;68.90;;;;;;6276797;22;20402;-74
2023/09/29 06:31:10;;;;;;;2.90;2.50;;;20.30;69.40;;;;;;6276674;22;20421;-73
2023/09/29 06:33:36;;;;;;;3.97;2.87;;;20.40;69.60;;;;;;6276797;22;20398;-73
2023/09/29 06:36:05;;;;;;;3.73;2.00;;;20.60;68.50;;;;;;6276732;22;20409;-73
2023/09/29 06:38:32;;;;;;;5.07;2.37;;;20.70;68.30;;;;;;6276354;22;20422;-73
2023/09/29 06:40:58;;;;;;;3.30;2.00;;;20.80;68.00;;;;;;6276591;22;20425;-73
2023/09/29 06:43:25;;;;;;;3.70;2.33;;;20.80;68.80;;;;;;6276552;22;20433;-73
2023/09/29 06:45:52;;;;;;;2.53;2.17;;;21.00;68.80;;;;;;6276617;22;20714;-73
2023/09/29 06:48:18;;;;;;;2.53;2.13;;;21.00;68.60;;;;;;6276571;22;20796;-72
2023/09/29 06:50:45;;;;;;;2.60;2.20;;;21.00;68.20;;;;;;6276153;22;20964;-72
2023/09/29 06:53:13;;;;;;;4.57;2.03;;;20.90;68.10;;;;;;6276594;22;20393;-73
2023/09/29 06:55:40;;;;;;;2.93;2.20;;;20.70;68.50;;;;;;6276601;22;20405;-73
2023/09/29 06:58:07;;;;;;;2.80;2.17;;;20.70;70.00;;;;;;6276595;22;20404;-73
2023/09/29 07:00:33;;;;;;;3.80;2.40;;;20.60;69.30;;;;;;6276348;22;20769;-73
2023/09/29 07:03:00;;;;;;;3.13;1.80;;;20.60;69.50;;;;;;6276521;22;20429;-73
2023/09/29 07:05:27;;;;;;;3.20;2.30;;;20.50;69.30;;;;;;6276536;22;20404;-72
2023/09/29 07:07:54;;;;;;;3.70;2.20;;;20.60;69.30;;;;;;6276484;22;20397;-73
2023/09/29 07:10:22;;;;;;;3.03;2.33;;;20.60;70.20;;;;;;6276089;22;20432;-72
2023/09/29 07:12:49;;;;;;;4.80;2.50;;;20.50;69.90;;;;;;6276111;22;20397;-73
2023/09/29 07:15:16;;;;;;;2.73;2.27;;;20.50;69.70;;;;;;6276151;22;20926;-73
2023/09/29 07:17:42;;;;;;;3.20;2.00;;;20.40;70.10;;;;;;6276458;22;20507;-73
2023/09/29 07:20:10;;;;;;;3.77;2.20;;;20.50;70.80;;;;;;6276461;22;20401;-73
2023/09/29 07:22:37;;;;;;;2.60;2.00;;;20.40;70.60;;;;;;6276285;22;20424;-73
2023/09/29 07:25:04;;;;;;;2.80;1.90;;;20.50;70.50;;;;;;6276493;22;20397;-73
2023/09/29 07:27:32;;;;;;;2.80;2.00;;;20.50;70.10;;;;;;6276439;22;20405;-73
2023/09/29 07:29:59;;;;;;;3.20;2.40;;;20.60;70.50;;;;;;6276028;22;20408;-73
2023/09/29 07:32:26;;;;;;;3.73;2.17;;;20.70;70.10;;;;;;6276346;22;20475;-71
2023/09/29 07:34:52;;;;;;;3.03;1.80;;;20.60;70.90;;;;;;6276451;22;20432;-73
2023/09/29 07:37:19;;;;;;;3.03;2.27;;;20.60;71.40;;;;;;6276381;22;20412;-73
2023/09/29 07:39:46;;;;;;;2.87;2.40;;;20.80;70.40;;;;;;6276362;22;20405;-73
2023/09/29 07:42:12;;;;;;;2.30;2.00;;;20.90;69.40;;;;;;6276332;22;20421;-73
2023/09/29 07:44:41;;;;;;;2.60;2.07;;;21.10;69.80;;;;;;6276334;22;20444;-73
2023/09/29 07:47:08;;;;;;;2.20;1.77;;;21.20;69.80;;;;;;6276403;22;20406;-73
2023/09/29 07:49:40;;;;;;;2.70;2.00;;;21.30;70.60;;;;;;6276490;22;20424;-73
2023/09/29 07:52:07;;;;;;;3.43;2.07;;;21.40;69.40;;;;;;6278239;22;20421;-73
2023/09/29 07:54:34;;;;;;;4.00;2.33;;;21.60;69.40;;;;;;6278233;22;20397;-73
2023/09/29 07:57:01;;;;;;;2.83;2.00;;;21.60;69.20;;;;;;6278275;22;20397;-73
2023/09/29 07:59:27;;;;;;;3.67;2.07;;;21.70;69.00;;;;;;6278255;22;20459;-72
2023/09/29 08:01:58;;;;;;;2.80;1.93;;;21.90;68.60;;;;;;6277719;22;20490;-71
2023/09/29 08:04:24;;;;;;;2.60;1.80;;;22.00;67.40;;;;;;6277763;22;20447;-73
2023/09/29 08:06:51;;;;;;;3.30;1.90;;;22.00;67.50;;;;;;6277760;22;20711;-72
2023/09/29 08:09:18;;;;;;;2.37;1.80;;;21.90;67.10;;;;;;6278204;22;20401;-72
2023/09/29 08:11:45;;;;;;;2.50;2.07;;;21.90;67.20;;;;;;6278008;22;20432;-73
2023/09/29 08:14:12;;;;;;;2.33;1.70;;;22.00;66.90;;;;;;6278090;22;20397;-73
2023/09/29 08:16:39;;;;;;;2.50;1.97;;;22.30;65.80;;;;;;6278098;22;20401;-73
2023/09/29 08:19:07;;;;;;;2.73;1.63;;;22.50;65.90;;;;;;6278100;22;20405;-73
2023/09/29 08:21:34;;;;;;;3.20;2.00;;;22.60;65.10;;;;;;6277491;22;20757;-73
2023/09/29 08:24:03;;;;;;;2.30;1.70;;;22.50;65.60;;;;;;6277903;22;20437;-73
2023/09/29 08:26:30;;;;;;;2.27;1.80;;;22.50;65.20;;;;;;6277943;22;20401;-73
2023/09/29 08:28:57;;;;;;;3.60;2.03;;;22.60;64.30;;;;;;6277913;22;20455;-73
2023/09/29 08:31:24;;;;;;;2.10;1.40;;;23.00;64.20;;;;;;6277857;22;20416;-74
2023/09/29 08:33:50;;;;;;;2.37;1.60;;;23.30;63.70;;;;;;6277890;22;20393;-73
2023/09/29 08:36:18;;;;;;;4.00;2.10;;;23.50;64.70;;;;;;6277907;22;20401;-73
2023/09/29 08:38:45;;;;;;;3.23;1.90;;;23.70;64.00;;;;;;6277806;22;20404;-73
2023/09/29 08:41:12;;;;;;;2.50;1.80;;;23.80;63.20;;;;;;6277972;22;20421;-74
2023/09/29 08:43:41;;;;;;;2.13;1.53;;;23.80;63.90;;;;;;6277795;22;20442;-74
2023/09/29 08:46:09;;;;;;;3.73;1.87;;;23.80;64.30;;;;;;6278005;22;20409;-73
2023/09/29 08:48:36;;;;;;;2.93;1.80;;;23.90;63.80;;;;;;6277715;22;20401;-73
2023/09/29 08:51:03;;;;;;;2.77;1.80;;;24.10;64.30;;;;;;6277679;22;20418;-73
2023/09/29 08:53:33;;;;;;;4.90;2.13;;;24.40;62.20;;;;;;6277483;22;20397;-73
2023/09/29 08:56:04;;;;;;;2.43;1.73;;;24.60;62.60;;;;;;6277654;22;20404;-74
2023/09/29 08:58:32;;;;;;;2.80;1.90;;;24.50;64.30;;;;;;6277344;22;20914;-73
2023/09/29 09:00:59;;;;;;;2.93;1.70;;;24.70;64.00;;;;;;6277290;22;20441;-75
2023/09/29 09:03:26;;;;;;;2.00;1.53;;;24.90;61.90;;;;;;6277277;22;20437;-73
2023/09/29 09:05:53;;;;;;;3.43;1.77;;;25.00;61.00;;;;;;6277160;22;20920;-74
2023/09/29 09:08:20;;;;;;;2.23;1.90;;;25.00;62.30;;;;;;6277555;22;20437;-73
2023/09/29 09:10:48;;;;;;;2.90;1.77;;;25.00;61.10;;;;;;6277410;22;20418;-74
2023/09/29 09:13:21;;;;;;;3.60;1.60;;;25.00;59.90;;;;;;6277436;22;20401;-73
2023/09/29 09:15:55;;;;;;;2.37;1.67;;;25.10;60.10;;;;;;6277073;22;20393;-72
2023/09/29 09:18:23;;;;;;;2.20;1.70;;;24.90;57.50;;;;;;6277517;22;20395;-74
2023/09/29 09:20:52;;;;;;;2.67;1.60;;;24.70;59.60;;;;;;6277328;22;20417;-73
2023/09/29 09:23:19;;;;;;;2.37;1.40;;;24.80;59.40;;;;;;6277272;22;20745;-73
2023/09/29 09:25:46;;;;;;;1.90;1.30;;;24.80;57.70;;;;;;6277323;22;20406;-73
2023/09/29 09:28:17;;;;;;;2.23;1.80;;;24.80;60.40;;;;;;6276940;22;20408;-72
2023/09/29 09:30:45;;;;;;;2.47;1.53;;;24.90;59.30;;;;;;6276887;22;20951;-72
2023/09/29 09:33:18;;;;;;;2.53;1.70;;;25.00;58.20;;;;;;6277191;22;20397;-73
2023/09/29 09:35:45;;;;;;;2.33;1.70;;;25.10;57.40;;;;;;6276885;22;20409;-73
2023/09/29 09:38:12;;;;;;;5.83;1.87;;;25.30;58.70;;;;;;6277277;22;20424;-73
2023/09/29 09:40:38;;;;;;;2.40;1.70;;;25.60;58.20;;;;;;6276718;22;20746;-73
2023/09/29 09:43:08;;;;;;;2.73;1.73;;;25.80;58.20;;;;;;6277196;22;20405;-72
2023/09/29 09:45:40;;;;;;;2.47;1.87;;;26.00;57.50;;;;;;6277183;22;20393;-73
2023/09/29 09:48:09;;;;;;;3.10;1.63;;;26.30;57.30;;;;;;6277196;22;20400;-71
2023/09/29 09:50:37;;;;;;;2.33;1.50;;;26.50;56.10;;;;;;6277396;22;20409;-73
2023/09/29 09:53:08;;;;;;;5.60;2.07;;;26.30;55.20;;;;;;6276732;22;20953;-74
2023/09/29 09:55:39;;;;;;;1.70;1.20;;;26.20;56.00;;;;;;6277164;22;20389;-74
2023/09/29 09:58:12;;;;;;;1.90;1.50;;;26.00;55.60;;;;;;6276661;22;20701;-74
2023/09/29 10:00:44;;;;;;;3.80;1.97;;;26.00;57.60;;;;;;6276854;22;20405;-73
2023/09/29 10:03:12;;;;;;;2.10;1.37;;;26.00;56.20;;;;;;6277075;22;20382;-74
2023/09/29 10:05:41;;;;;;;2.13;1.40;;;26.00;56.30;;;;;;6276823;22;20527;-74
2023/09/29 10:08:10;;;;;;;2.20;1.47;;;26.00;57.80;;;;;;6276892;22;20492;-74
2023/09/29 10:10:39;;;;;;;1.97;1.50;;;26.00;56.40;;;;;;6276448;22;20409;-74
2023/09/29 10:13:07;;;;;;;3.53;1.40;;;26.00;58.10;;;;;;6276595;22;20732;-74
2023/09/29 10:15:35;;;;;;;2.97;1.60;;;26.10;57.00;;;;;;6277349;22;20400;-73
2023/09/29 10:18:16;;;;;;;2.80;1.70;;;26.20;57.60;;;;;;6276450;22;20479;-73
2023/09/29 10:20:43;;;;;;;3.13;1.63;;;26.00;56.40;;;;;;6276456;22;20939;-73
2023/09/29 10:23:13;;;;;;;2.10;1.50;;;25.90;56.90;;;;;;6276832;22;20401;-73
2023/09/29 10:25:42;;;;;;;3.80;2.00;;;25.80;57.60;;;;;;6276718;22;20432;-73
2023/09/29 10:28:12;;;;;;;2.10;1.57;;;25.80;57.50;;;;;;6276774;22;20401;-73
2023/09/29 10:30:39;;;;;;;2.43;1.87;;;25.70;59.30;;;;;;6276276;22;20740;-74
2023/09/29 10:33:11;;;;;;;2.57;1.50;;;25.80;58.00;;;;;;6276801;22;20402;-74
2023/09/29 10:35:45;;;;;;;2.03;1.40;;;26.00;60.00;;;;;;6276754;22;20379;-74
2023/09/29 10:38:15;;;;;;;2.60;1.47;;;25.80;59.40;;;;;;6276785;22;20472;-74
2023/09/29 10:40:44;;;;;;;2.57;1.40;;;25.70;59.90;;;;;;6276647;22;20428;-74
2023/09/29 10:43:12;;;;;;;2.17;1.67;;;25.70;59.40;;;;;;6276252;22;20779;-74
2023/09/29 10:45:40;;;;;;;2.20;1.40;;;25.70;60.70;;;;;;6276587;22;20512;-74
2023/09/29 10:48:09;;;;;;;2.60;1.77;;;25.80;59.90;;;;;;6276658;22;20496;-74
2023/09/29 10:50:41;;;;;;;2.20;1.53;;;25.90;59.30;;;;;;6276449;22;20432;-74
2023/09/29 10:53:08;;;;;;;2.20;1.60;;;26.10;59.70;;;;;;6276573;22;20490;-73
2023/09/29 10:55:43;;;;;;;2.30;1.70;;;26.30;58.60;;;;;;6276174;22;20779;-76
2023/09/29 10:58:10;;;;;;;2.40;1.70;;;26.30;59.30;;;;;;6276664;22;20381;-73
2023/09/29 11:00:42;;;;;;;2.60;1.67;;;26.30;57.20;;;;;;6276001;22;20719;-74
2023/09/29 11:03:13;;;;;;;3.10;1.60;;;26.40;59.50;;;;;;6276637;22;20382;-74
2023/09/29 11:05:50;;;;;;;2.57;2.03;;;26.50;58.40;;;;;;6276128;22;20426;-74
2023/09/29 11:08:19;;;;;;;3.87;1.70;;;26.60;59.10;;;;;;6276571;22;20408;-74
2023/09/29 11:10:58;;;;;;;3.40;1.63;;;26.70;58.40;;;;;;6276435;22;20436;-74
2023/09/29 11:13:26;;;;;;;2.77;1.70;;;26.70;58.40;;;;;;6276652;22;20526;-74
2023/09/29 11:15:53;;;;;;;2.47;1.80;;;26.60;58.30;;;;;;6276521;22;20403;-74
2023/09/29 11:18:32;;;;;;;3.63;1.50;;;26.70;58.90;;;;;;6276146;22;20898;-74
2023/09/29 11:21:00;;;;;;;3.10;1.80;;;26.90;58.10;;;;;;6276635;22;20425;-74
2023/09/29 11:23:28;;;;;;;2.90;1.53;;;27.10;57.80;;;;;;6276640;22;20431;-73
2023/09/29 11:25:57;;;;;;;2.50;1.43;;;27.30;59.10;;;;;;6277605;22;20504;-74
2023/09/29 11:28:24;;;;;;;2.83;1.57;;;27.30;58.30;;;;;;6278571;22;20455;-74
2023/09/29 11:30:51;;;;;;;3.10;1.90;;;27.40;57.90;;;;;;6278078;22;20428;-74
2023/09/29 11:33:19;;;;;;;2.60;2.07;;;27.60;57.50;;;;;;6278520;22;20789;-74
2023/09/29 11:35:47;;;;;;;2.00;1.70;;;27.70;57.30;;;;;;6279183;22;20455;-74
2023/09/29 11:38:19;;;;;;;2.77;1.73;;;27.80;56.60;;;;;;6278431;22;20397;-74
2023/09/29 11:40:46;;;;;;;4.20;1.70;;;27.90;56.50;;;;;;6277969;22;20936;-74
2023/09/29 11:43:13;;;;;;;3.10;2.00;;;28.10;58.00;;;;;;6278335;22;20408;-74
2023/09/29 11:45:40;;;;;;;2.70;1.60;;;28.40;56.00;;;;;;6278229;22;20432;-74
2023/09/29 11:48:07;;;;;;;2.20;1.50;;;28.50;55.50;;;;;;6278321;22;20451;-74
2023/09/29 11:50:34;;;;;;;3.00;1.87;;;28.60;55.70;;;;;;6278190;22;20404;-73
2023/09/29 11:53:06;;;;;;;3.37;1.70;;;28.80;55.30;;;;;;6278265;22;20401;-73
2023/09/29 11:55:33;;;;;;;2.83;1.40;;;29.00;54.80;;;;;;6277948;22;20859;-74
2023/09/29 11:58:00;;;;;;;2.10;1.50;;;29.20;54.20;;;;;;6278245;22;20714;-73
2023/09/29 12:00:27;;;;;;;2.67;1.60;;;29.50;54.20;;;;;;6277980;22;20441;-75
2023/09/29 12:02:54;;;;;;;2.47;1.70;;;29.40;53.40;;;;;;6278217;22;20420;-74
2023/09/29 12:05:21;;;;;;;1.90;1.50;;;29.50;53.00;;;;;;6278064;22;20832;-74
2023/09/29 12:07:48;;;;;;;2.30;1.80;;;29.40;52.90;;;;;;6278122;22;20397;-73
2023/09/29 12:10:16;;;;;;;2.33;1.40;;;29.20;54.00;;;;;;6277933;22;20908;-74
2023/09/29 12:12:42;;;;;;;2.00;1.63;;;29.50;53.80;;;;;;6278006;22;20417;-74
2023/09/29 12:15:11;;;;;;;3.07;1.83;;;29.80;53.90;;;;;;6278086;22;20393;-74
2023/09/29 12:17:38;;;;;;;2.73;1.50;;;29.90;52.40;;;;;;6277984;22;20480;-75
2023/09/29 12:20:08;;;;;;;2.20;1.50;;;30.10;52.00;;;;;;6277651;22;20776;-74
2023/09/29 12:22:34;;;;;;;2.03;1.43;;;30.00;51.50;;;;;;6277837;22;20495;-74
2023/09/29 12:25:01;;;;;;;3.80;1.90;;;30.10;51.60;;;;;;6277895;22;20801;-74
2023/09/29 12:27:29;;;;;;;2.30;1.50;;;30.20;51.30;;;;;;6277941;22;20766;-74
2023/09/29 12:29:56;;;;;;;2.27;1.50;;;30.20;51.10;;;;;;6277918;22;20835;-74
2023/09/29 12:32:22;;;;;;;2.10;1.50;;;30.00;52.50;;;;;;6277830;22;20789;-74
2023/09/29 12:34:49;;;;;;;3.53;1.53;;;30.20;51.60;;;;;;6277877;22;20732;-74
2023/09/29 12:37:16;;;;;;;3.33;1.40;;;30.10;52.20;;;;;;6277347;22;20482;-74
2023/09/29 12:39:42;;;;;;;2.63;1.87;;;30.20;51.50;;;;;;6278450;22;20423;-74
2023/09/29 12:42:09;;;;;;;1.80;1.40;;;30.20;51.70;;;;;;6277312;22;20940;-74
2023/09/29 12:44:37;;;;;;;3.77;1.77;;;30.30;52.40;;;;;;6277635;22;20434;-74
2023/09/29 12:47:04;;;;;;;1.70;1.20;;;30.60;50.60;;;;;;6277787;22;20405;-75
2023/09/29 12:49:31;;;;;;;2.13;1.50;;;30.90;50.00;;;;;;6277686;22;20404;-74
2023/09/29 12:51:58;;;;;;;2.40;1.77;;;31.00;49.90;;;;;;6277238;22;20924;-74
2023/09/29 12:54:24;;;;;;;2.83;1.77;;;31.10;49.80;;;;;;6277727;22;20443;-74
2023/09/29 12:56:53;;;;;;;2.00;1.50;;;30.80;50.40;;;;;;6278667;22;20403;-74
2023/09/29 12:59:21;;;;;;;2.70;2.20;;;31.00;50.20;;;;;;6277220;22;20893;-74
2023/09/29 13:01:49;;;;;;;1.83;1.47;;;31.00;51.20;;;;;;6277217;22;20441;-74
2023/09/29 13:04:16;;;;;;;3.10;1.50;;;31.00;50.60;;;;;;6277500;22;20401;-74
2023/09/29 13:06:42;;;;;;;3.00;1.40;;;30.70;51.10;;;;;;6277493;22;20413;-74
2023/09/29 13:09:11;;;;;;;3.50;1.73;;;30.80;51.00;;;;;;6277368;22;20398;-72
2023/09/29 13:11:38;;;;;;;1.90;1.50;;;30.80;50.40;;;;;;6277412;22;20427;-74
2023/09/29 13:14:06;;;;;;;2.50;1.60;;;31.10;50.90;;;;;;6277473;22;20401;-74
2023/09/29 13:16:33;;;;;;;2.43;1.70;;;31.30;50.00;;;;;;6277035;22;20413;-74
2023/09/29 13:19:01;;;;;;;2.60;1.73;;;31.50;49.90;;;;;;6277379;22;20406;-74
2023/09/29 13:21:33;;;;;;;3.30;1.67;;;31.50;49.90;;;;;;6277998;22;20431;-74
2023/09/29 13:24:00;;;;;;;4.07;1.77;;;31.80;49.10;;;;;;6277437;22;20390;-73
2023/09/29 13:26:27;;;;;;;3.60;1.60;;;32.10;49.20;;;;;;6277275;22;20438;-74
2023/09/29 13:28:54;;;;;;;2.30;1.47;;;32.30;48.30;;;;;;6277325;22;20408;-74
2023/09/29 13:31:20;;;;;;;3.30;1.60;;;32.40;47.70;;;;;;6277331;22;20499;-74
2023/09/29 13:33:47;;;;;;;2.20;1.40;;;32.20;48.10;;;;;;6277181;22;20405;-74
2023/09/29 13:36:15;;;;;;;2.23;1.30;;;32.00;48.00;;;;;;6277319;22;20483;-74
2023/09/29 13:38:43;;;;;;;2.83;1.40;;;31.70;47.90;;;;;;6277279;22;20406;-74
2023/09/29 13:41:10;;;;;;;3.23;1.50;;;31.70;48.60;;;;;;6277119;22;20425;-74
2023/09/29 13:43:38;;;;;;;3.10;1.40;;;32.00;49.30;;;;;;6277257;22;20401;-74
2023/09/29 13:46:05;;;;;;;2.43;1.40;;;32.50;47.00;;;;;;6277115;22;20437;-74
2023/09/29 13:48:32;;;;;;;5.27;1.77;;;33.10;46.50;;;;;;6276627;22;20734;-74
2023/09/29 13:51:04;;;;;;;2.07;1.50;;;33.30;45.90;;;;;;6277076;22;20417;-74
2023/09/29 13:53:32;;;;;;;2.00;1.30;;;32.70;46.20;;;;;;6277182;22;20386;-74
2023/09/29 13:56:04;;;;;;;2.23;1.63;;;32.10;47.20;;;;;;6277080;22;20436;-74
2023/09/29 13:58:31;;;;;;;3.20;1.20;;;31.60;47.50;;;;;;6277102;22;20386;-73
2023/09/29 14:00:57;;;;;;;3.50;1.60;;;31.00;48.50;;;;;;6276696;22;20433;-73
2023/09/29 14:03:24;;;;;;;2.93;1.50;;;30.20;49.60;;;;;;6277065;22;20385;-74
2023/09/29 14:05:51;;;;;;;2.17;1.57;;;30.00;50.60;;;;;;6276915;22;20437;-74
2023/09/29 14:08:19;;;;;;;2.43;1.40;;;29.80;51.90;;;;;;6276939;22;20401;-73
2023/09/29 14:10:47;;;;;;;3.07;1.60;;;29.70;51.60;;;;;;6276852;22;20770;-74
2023/09/29 14:13:16;;;;;;;1.77;1.17;;;30.80;50.80;;;;;;6276890;22;20440;-74
2023/09/29 14:15:42;;;;;;;2.00;1.40;;;32.40;47.90;;;;;;6276876;22;20484;-74
2023/09/29 14:18:09;;;;;;;4.93;1.40;;;34.10;45.30;;;;;;6276842;22;20447;-74
2023/09/29 14:20:36;;;;;;;2.37;1.43;;;35.20;43.40;;;;;;6276761;22;20408;-74
2023/09/29 14:23:03;;;;;;;1.83;1.40;;;36.30;41.20;;;;;;6276827;22;20408;-74
2023/09/29 14:25:30;;;;;;;1.93;1.53;;;36.50;41.40;;;;;;6276670;22;20440;-74
2023/09/29 14:27:58;;;;;;;2.33;1.30;;;36.00;41.40;;;;;;6276421;22;20884;-74
2023/09/29 14:30:25;;;;;;;2.77;1.30;;;35.00;42.70;;;;;;6276668;22;20466;-73
2023/09/29 14:32:51;;;;;;;1.60;1.03;;;33.90;44.50;;;;;;6276783;22;20444;-74
2023/09/29 14:35:18;;;;;;;2.20;1.60;;;32.80;46.30;;;;;;6276766;22;20393;-73
2023/09/29 14:37:48;;;;;;;2.77;1.40;;;31.90;47.80;;;;;;6276730;22;20397;-75
2023/09/29 14:40:14;;;;;;;2.93;1.60;;;30.90;49.30;;;;;;6276707;22;20405;-74
2023/09/29 14:42:42;;;;;;;2.17;1.40;;;30.10;51.30;;;;;;6276567;22;20428;-74
2023/09/29 14:45:12;;;;;;;2.60;1.40;;;29.70;52.00;;;;;;6276582;22;20479;-73
2023/09/29 14:47:39;;;;;;;2.20;1.57;;;29.50;51.80;;;;;;6276622;22;20433;-73
2023/09/29 14:50:06;;;;;;;2.50;1.23;;;29.40;52.00;;;;;;6276644;22;20409;-73
2023/09/29 14:52:33;;;;;;;1.97;1.30;;;29.20;52.50;;;;;;6276474;22;20417;-73
2023/09/29 14:55:04;;;;;;;2.10;1.53;;;29.00;53.20;;;;;;6276620;22;20405;-73
2023/09/29 14:57:31;;;;;;;3.00;1.30;;;28.70;53.80;;;;;;6276224;22;20888;-74
2023/09/29 14:59:58;;;;;;;2.40;1.27;;;28.50;54.80;;;;;;6276257;22;20407;-74
2023/09/29 15:02:26;;;;;;;3.03;2.00;;;28.40;55.50;;;;;;6276073;22;20775;-74
2023/09/29 15:04:53;;;;;;;2.40;1.37;;;28.20;57.60;;;;;;6276459;22;20402;-73
2023/09/29 15:07:20;;;;;;;4.93;2.37;;;27.90;59.40;;;;;;6276548;22;20464;-74
2023/09/29 15:09:46;;;;;;;2.97;2.07;;;27.60;60.40;;;;;;6276518;22;20454;-74
2023/09/29 15:12:14;;;;;;;4.93;2.10;;;27.10;61.80;;;;;;6276472;22;20421;-74
2023/09/29 15:14:40;;;;;;;2.30;1.87;;;26.70;63.00;;;;;;6276583;22;20450;-73
2023/09/29 15:17:07;;;;;;;2.70;1.80;;;26.50;64.00;;;;;;6276540;22;20398;-73
2023/09/29 15:19:41;;;;;;;2.63;1.80;;;26.30;64.60;;;;;;6276445;22;20403;-74
2023/09/29 15:22:08;;;;;;;2.60;1.90;;;26.20;65.10;;;;;;6276384;22;20422;-74
2023/09/29 15:24:35;;;;;;;2.80;1.87;;;26.10;65.80;;;;;;6276841;22;20726;-72
2023/09/29 15:27:02;;;;;;;2.90;2.07;;;26.00;66.20;;;;;;6276380;22;20448;-74
2023/09/29 15:29:30;;;;;;;3.50;1.93;;;25.90;66.50;;;;;;6276483;22;20398;-74
2023/09/29 15:31:57;;;;;;;3.60;2.13;;;25.90;66.40;;;;;;6277269;22;20417;-74
2023/09/29 15:34:24;;;;;;;2.20;1.57;;;25.90;66.50;;;;;;6276401;22;20767;-75
2023/09/29 15:36:53;;;;;;;4.73;2.10;;;25.90;66.80;;;;;;6276401;22;20489;-74
2023/09/29 15:39:19;;;;;;;2.77;1.90;;;25.80;66.90;;;;;;6276396;22;20406;-74
2023/09/29 15:41:46;;;;;;;2.60;1.77;;;25.70;67.10;;;;;;6276301;22;20479;-74
2023/09/29 15:44:15;;;;;;;2.63;1.77;;;25.50;67.60;;;;;;6276296;22;20432;-73
2023/09/29 15:46:44;;;;;;;2.50;1.90;;;25.40;67.90;;;;;;6275853;22;20752;-72
2023/09/29 15:49:11;;;;;;;2.77;1.87;;;25.30;68.30;;;;;;6276303;22;20497;-74
2023/09/29 15:51:38;;;;;;;3.13;2.03;;;25.20;68.30;;;;;;6276201;22;20425;-74
2023/09/29 15:54:06;;;;;;;4.10;2.30;;;25.10;68.20;;;;;;6275928;22;20894;-74
2023/09/29 15:56:33;;;;;;;4.13;2.30;;;24.80;68.70;;;;;;6276320;22;20396;-74
2023/09/29 15:59:00;;;;;;;4.00;2.40;;;24.80;68.80;;;;;;6276319;22;20408;-73
2023/09/29 16:01:27;;;;;;;4.43;2.80;;;24.70;69.00;;;;;;6276004;22;20460;-73
2023/09/29 16:03:53;;;;;;;4.10;2.70;;;24.70;69.20;;;;;;6275869;22;20416;-74
2023/09/29 16:06:20;;;;;;;4.00;2.73;;;24.60;68.70;;;;;;6275786;22;20962;-73
2023/09/29 16:08:47;;;;;;;4.20;2.73;;;24.50;68.90;;;;;;6275874;22;20793;-73
2023/09/29 16:11:16;;;;;;;10.73;3.50;;;24.50;69.10;;;;;;6276212;22;20425;-73
2023/09/29 16:13:44;;;;;;;3.43;2.47;;;24.50;69.00;;;;;;6278577;22;20407;-72
2023/09/29 16:16:10;;;;;;;3.33;2.37;;;24.50;68.90;;;;;;6277645;22;20394;-74
2023/09/29 16:18:37;;;;;;;5.30;3.60;;;24.60;68.80;;;;;;6277609;22;20915;-74
2023/09/29 16:21:04;;;;;;;5.00;3.70;;;24.50;68.50;;;;;;6277900;22;20418;-74
2023/09/29 16:23:31;;;;;;;6.20;4.23;;;24.40;67.90;;;;;;6277711;22;20903;-74
2023/09/29 16:25:57;;;;;;;4.20;3.40;;;24.20;68.00;;;;;;6277446;22;20951;-74
2023/09/29 16:28:25;;;;;;;6.47;5.17;;;24.20;68.00;;;;;;6277602;22;20397;-73
2023/09/29 16:30:52;;;;;;;5.77;4.63;;;24.00;68.20;;;;;;6277437;22;20932;-74
2023/09/29 16:33:19;;;;;;;6.57;5.23;;;23.90;68.20;;;;;;6277886;22;20405;-74
2023/09/29 16:35:45;;;;;;;6.80;5.23;;;23.80;68.60;;;;;;6277825;22;20455;-74
2023/09/29 16:38:12;;;;;;;5.93;5.27;;;23.70;68.60;;;;;;6277823;22;20401;-74
2023/09/29 16:40:39;;;;;;;6.57;5.43;;;23.70;68.60;;;;;;6277660;22;20401;-74
2023/09/29 16:43:05;;;;;;;6.90;5.80;;;23.70;68.70;;;;;;6277763;22;20694;-74
2023/09/29 16:45:34;;;;;;;5.97;4.93;;;23.60;68.70;;;;;;6277691;22;20397;-73
2023/09/29 16:48:00;;;;;;;6.93;5.90;;;23.70;68.40;;;;;;6277382;22;20930;-73
2023/09/29 16:50:27;;;;;;;6.70;6.00;;;23.60;68.50;;;;;;6277207;22;20958;-74